Endeavor, Pennsylvania
Current Conditions -  °F | °C
As of 11:35 PM on Saturday 25 Oct 2014 (Local Time) from KFKL Reporting Station
Clear Clear  
Wind Chill: 55°   Ceiling: Unl
Heat Index: 55°   Visibility: 10mi
Dew Point: 34°   Wind: 13mph
Humidity: 44%   Direction: 300°WNW
Pressure: 29.76"   Gusts: 22mph
Location:  41.59°N, 79.39°W
Report Text: KFKL 260335Z 30011G19KT 10SM CLR 13/01 A2976 RMK AO1
Loading
Personal Weather Stations






























Interactive Weather Map
Tropical Storm Tracking
New forecast layout! Learn more

10-Day Weather Forecast

Advertisements
Track Severe Weather on mobile